Time;durP1;ratioP1;P1;durP2;ratioP2;P2;SDS_P1;SDS_P2;PMS_P1;PMS_P2;Temp;Humidity;BMP_temperature;BMP_pressure;BME280_temperature;BME280_humidity;BME280_pressure;Samples;Min_cycle;Max_cycle;Signal;HPM_P1;HPM_P2
2022/03/30 00:01:00;;;;;;;26.88;13.40;;;11.40;99.90;;;;;;4976036;28;20022;-62
2022/03/30 00:03:26;;;;;;;25.45;14.60;;;11.40;99.90;;;;;;4974556;28;20620;-62
2022/03/30 00:05:51;;;;;;;25.85;13.80;;;11.30;99.90;;;;;;4973397;28;20031;-62
2022/03/30 00:08:17;;;;;;;23.27;13.02;;;11.30;99.90;;;;;;4974951;28;20015;-62
2022/03/30 00:10:43;;;;;;;21.15;12.77;;;11.30;99.90;;;;;;4974716;28;20392;-62
2022/03/30 00:13:08;;;;;;;23.00;13.55;;;11.30;99.90;;;;;;4975500;28;20030;-62
2022/03/30 00:15:34;;;;;;;25.00;13.82;;;11.30;99.90;;;;;;4975040;28;20050;-62
2022/03/30 00:18:00;;;;;;;23.40;13.45;;;11.30;99.90;;;;;;4974194;28;20023;-62
2022/03/30 00:20:26;;;;;;;24.27;12.75;;;11.20;99.90;;;;;;4975052;28;21879;-62
2022/03/30 00:22:52;;;;;;;23.83;12.88;;;11.30;99.90;;;;;;4974639;28;20031;-62
2022/03/30 00:25:18;;;;;;;22.75;13.02;;;11.20;99.90;;;;;;4974600;28;20047;-61
2022/03/30 00:27:46;;;;;;;26.40;13.48;;;11.20;99.90;;;;;;4973485;28;20030;-61
2022/03/30 00:30:14;;;;;;;18.80;11.65;;;11.20;99.90;;;;;;4974398;28;20118;-61
2022/03/30 00:32:40;;;;;;;22.50;12.60;;;11.30;99.90;;;;;;4974082;28;20510;-61
2022/03/30 00:35:07;;;;;;;19.52;11.75;;;11.30;99.90;;;;;;4974574;28;20047;-61
2022/03/30 00:37:34;;;;;;;21.02;12.00;;;11.30;99.90;;;;;;4959185;28;20054;-61
2022/03/30 00:40:00;;;;;;;25.73;12.10;;;11.30;99.90;;;;;;4970903;28;20045;-61
2022/03/30 00:42:26;;;;;;;17.60;11.75;;;11.30;99.90;;;;;;4973992;28;20041;-60
2022/03/30 00:44:53;;;;;;;19.80;11.45;;;11.40;99.90;;;;;;4973999;28;20117;-59
2022/03/30 00:47:24;;;;;;;18.95;11.23;;;11.30;99.90;;;;;;4973564;28;20033;-59
2022/03/30 00:49:51;;;;;;;20.73;12.20;;;11.20;99.90;;;;;;4974109;28;20022;-59
2022/03/30 00:52:17;;;;;;;18.73;11.38;;;11.30;99.90;;;;;;4974140;28;20077;-60
2022/03/30 00:54:49;;;;;;;19.45;11.35;;;11.30;99.90;;;;;;4974114;28;20089;-59
2022/03/30 00:57:22;;;;;;;24.17;11.02;;;11.30;99.90;;;;;;4974188;28;20500;-59
2022/03/30 00:59:48;;;;;;;23.10;10.97;;;11.40;99.90;;;;;;4973560;28;20128;-59
2022/03/30 01:02:14;;;;;;;21.92;11.68;;;11.30;99.90;;;;;;4973355;28;20533;-59
2022/03/30 01:04:40;;;;;;;20.05;11.27;;;11.30;99.90;;;;;;4973940;28;20034;-59
2022/03/30 01:07:06;;;;;;;23.08;11.38;;;11.30;99.90;;;;;;4974254;28;20098;-59
2022/03/30 01:09:32;;;;;;;19.10;11.30;;;11.40;99.90;;;;;;4973369;28;20022;-59
2022/03/30 01:11:58;;;;;;;21.88;11.88;;;11.30;99.90;;;;;;4973509;28;20023;-59
2022/03/30 01:14:24;;;;;;;19.52;11.93;;;11.30;99.90;;;;;;4973301;28;20031;-60
2022/03/30 01:16:50;;;;;;;22.70;11.77;;;11.40;99.90;;;;;;4973301;28;20042;-59
2022/03/30 01:19:16;;;;;;;19.88;11.57;;;11.40;99.90;;;;;;4973304;28;20408;-59
2022/03/30 01:21:43;;;;;;;21.35;11.50;;;11.40;99.90;;;;;;4973839;28;20050;-59
2022/03/30 01:24:12;;;;;;;20.60;11.50;;;11.30;99.90;;;;;;4973611;28;20033;-59
2022/03/30 01:26:38;;;;;;;18.77;11.88;;;11.30;99.90;;;;;;4973218;28;20027;-59
2022/03/30 01:34:39;;;;;;;23.85;12.30;;;11.30;99.90;;;;;;4958079;28;20727;-59
2022/03/30 01:37:06;;;;;;;16.77;11.63;;;11.30;99.90;;;;;;4973629;28;20030;-61
2022/03/30 01:39:32;;;;;;;18.17;12.60;;;11.40;99.90;;;;;;4972989;28;20484;-61
2022/03/30 01:41:58;;;;;;;21.77;11.50;;;11.30;99.90;;;;;;4972974;28;20034;-61
2022/03/30 01:44:24;;;;;;;18.88;12.00;;;11.40;99.90;;;;;;4973026;28;20037;-61
2022/03/30 01:46:50;;;;;;;18.58;11.82;;;11.40;99.90;;;;;;4972782;28;20034;-61
2022/03/30 01:49:21;;;;;;;16.35;11.98;;;11.50;99.90;;;;;;4973348;28;20093;-61
2022/03/30 01:51:51;;;;;;;18.33;11.82;;;11.40;99.90;;;;;;4972124;28;20038;-61
2022/03/30 01:54:22;;;;;;;18.27;11.32;;;11.40;99.90;;;;;;4972873;28;20034;-62
2022/03/30 01:56:49;;;;;;;18.95;12.07;;;11.40;99.90;;;;;;4972802;28;20070;-61
2022/03/30 01:59:16;;;;;;;18.73;12.00;;;11.40;99.90;;;;;;4972491;28;20018;-61
2022/03/30 02:01:42;;;;;;;17.95;11.48;;;11.30;99.90;;;;;;4973028;28;20026;-61
2022/03/30 02:04:08;;;;;;;20.00;12.23;;;11.20;99.90;;;;;;4972988;28;20027;-61
2022/03/30 02:06:35;;;;;;;20.38;11.90;;;11.30;99.90;;;;;;4973003;28;20023;-62
2022/03/30 02:09:02;;;;;;;19.02;11.98;;;11.30;99.90;;;;;;4972827;28;20065;-64
2022/03/30 02:11:28;;;;;;;18.55;11.55;;;11.30;99.90;;;;;;4973090;28;20023;-61
2022/03/30 02:13:54;;;;;;;15.88;11.60;;;11.30;99.90;;;;;;4972433;28;20047;-61
2022/03/30 02:16:20;;;;;;;16.67;11.55;;;11.30;99.90;;;;;;4972672;28;20030;-62
2022/03/30 02:18:46;;;;;;;21.25;12.88;;;11.20;99.90;;;;;;4973287;28;20027;-62
2022/03/30 02:21:12;;;;;;;20.83;12.15;;;11.20;99.90;;;;;;4972797;28;20420;-61
2022/03/30 02:23:39;;;;;;;19.08;12.88;;;11.20;99.90;;;;;;4972649;28;20055;-61
2022/03/30 02:26:06;;;;;;;22.60;12.00;;;11.30;99.90;;;;;;4972504;28;20050;-61
2022/03/30 02:28:32;;;;;;;17.00;11.18;;;11.30;99.90;;;;;;4972189;28;20039;-61
2022/03/30 02:30:58;;;;;;;18.77;12.30;;;11.40;99.90;;;;;;4973120;28;20074;-61
2022/03/30 02:33:24;;;;;;;17.05;11.90;;;11.30;99.90;;;;;;4972507;28;20054;-61
2022/03/30 02:35:51;;;;;;;17.55;11.55;;;11.20;99.90;;;;;;4972352;28;20045;-62
2022/03/30 02:38:17;;;;;;;17.05;11.88;;;11.30;99.90;;;;;;4972346;28;20061;-61
2022/03/30 02:40:43;;;;;;;25.25;12.57;;;11.20;99.90;;;;;;4972461;28;20105;-61
2022/03/30 02:43:10;;;;;;;16.98;12.60;;;11.20;99.90;;;;;;4972328;28;20126;-61
2022/03/30 02:45:36;;;;;;;21.13;12.32;;;11.20;99.90;;;;;;4975021;28;20525;-62
2022/03/30 02:48:17;;;;;;;17.30;12.32;;;11.30;99.90;;;;;;4976196;28;20508;-61
2022/03/30 02:50:52;;;;;;;16.83;12.00;;;11.20;99.90;;;;;;4976253;28;20042;-62
2022/03/30 02:53:19;;;;;;;20.23;12.02;;;11.20;99.90;;;;;;4976133;28;20109;-61
2022/03/30 02:55:45;;;;;;;20.08;11.98;;;11.20;99.90;;;;;;4976089;28;20039;-61
2022/03/30 02:58:11;;;;;;;21.25;12.10;;;11.20;99.90;;;;;;4975859;28;20023;-61
2022/03/30 03:00:38;;;;;;;19.70;13.05;;;11.10;99.90;;;;;;4976984;28;20030;-61
2022/03/30 03:03:05;;;;;;;19.00;12.27;;;11.10;99.90;;;;;;4975745;28;20030;-61
2022/03/30 03:05:34;;;;;;;15.68;11.90;;;11.10;99.90;;;;;;4975969;28;20081;-61
2022/03/30 03:08:07;;;;;;;21.77;12.25;;;11.10;99.90;;;;;;4975835;28;20522;-60
2022/03/30 03:10:35;;;;;;;20.52;12.15;;;11.20;99.90;;;;;;4960265;28;20023;-59
2022/03/30 03:13:03;;;;;;;18.23;12.52;;;11.10;99.90;;;;;;4972033;28;20027;-60
2022/03/30 03:15:30;;;;;;;14.88;12.20;;;11.00;99.90;;;;;;4976090;28;20047;-59
2022/03/30 03:17:57;;;;;;;22.10;11.93;;;11.00;99.90;;;;;;4975630;28;20053;-59
2022/03/30 03:20:23;;;;;;;18.75;12.25;;;11.00;99.90;;;;;;4975485;28;20055;-59
2022/03/30 03:22:49;;;;;;;20.90;12.52;;;11.00;99.90;;;;;;4975611;28;20451;-59
2022/03/30 03:25:15;;;;;;;15.18;11.32;;;11.00;99.90;;;;;;4975607;28;20023;-59
2022/03/30 03:27:41;;;;;;;22.70;12.25;;;11.20;99.90;;;;;;4975710;28;20062;-61
2022/03/30 03:30:07;;;;;;;18.98;11.50;;;11.10;99.90;;;;;;4975539;28;20038;-61
2022/03/30 03:32:33;;;;;;;21.92;11.85;;;11.20;99.90;;;;;;4975388;28;20535;-61
2022/03/30 03:34:59;;;;;;;17.98;11.27;;;11.20;99.90;;;;;;4975559;28;20047;-59
2022/03/30 03:37:25;;;;;;;16.63;10.65;;;11.20;99.90;;;;;;4975447;28;20038;-60
2022/03/30 03:39:51;;;;;;;16.58;11.38;;;11.20;99.90;;;;;;4975755;28;20058;-59
2022/03/30 03:42:17;;;;;;;21.25;11.90;;;11.10;99.90;;;;;;4975057;28;20507;-60
2022/03/30 03:44:43;;;;;;;18.90;11.45;;;11.10;99.90;;;;;;4975017;28;20038;-59
2022/03/30 03:47:09;;;;;;;20.73;11.10;;;11.10;99.90;;;;;;4975405;28;20054;-61
2022/03/30 03:49:36;;;;;;;17.40;11.38;;;11.20;99.90;;;;;;4975469;28;20026;-61
2022/03/30 03:52:02;;;;;;;16.50;11.43;;;11.20;99.90;;;;;;4975960;28;20369;-61
2022/03/30 03:54:28;;;;;;;18.15;12.38;;;11.10;99.90;;;;;;4974687;28;20404;-62
2022/03/30 03:56:53;;;;;;;21.55;11.23;;;11.00;99.90;;;;;;4974484;28;20037;-61
2022/03/30 03:59:19;;;;;;;18.90;11.85;;;11.10;99.90;;;;;;4975023;28;20026;-61
2022/03/30 04:01:45;;;;;;;18.27;11.13;;;11.10;99.90;;;;;;4975104;28;20043;-62
2022/03/30 04:04:10;;;;;;;15.90;11.88;;;11.00;99.90;;;;;;4975316;28;20636;-61
2022/03/30 04:06:36;;;;;;;16.83;12.20;;;10.90;99.90;;;;;;4975326;28;20109;-61
2022/03/30 04:09:02;;;;;;;20.00;12.80;;;10.90;99.90;;;;;;4974639;28;20158;-61
2022/03/30 04:11:28;;;;;;;18.50;13.10;;;10.90;99.90;;;;;;4974528;28;20427;-61
2022/03/30 04:13:54;;;;;;;22.50;12.00;;;10.80;99.90;;;;;;4974461;28;20066;-62
2022/03/30 04:16:20;;;;;;;17.90;12.75;;;10.80;99.90;;;;;;4975182;28;20043;-61
2022/03/30 04:18:46;;;;;;;17.73;12.65;;;10.70;99.90;;;;;;4975122;28;20037;-59
2022/03/30 04:21:12;;;;;;;19.02;12.13;;;10.40;99.90;;;;;;4974453;28;20027;-61
2022/03/30 04:23:38;;;;;;;21.00;13.00;;;10.10;99.90;;;;;;4974615;28;20097;-62
2022/03/30 04:26:04;;;;;;;18.60;13.30;;;10.00;99.90;;;;;;4974262;28;20030;-61
2022/03/30 04:28:30;;;;;;;20.23;12.80;;;9.80;99.90;;;;;;4974609;28;20723;-62
2022/03/30 04:30:56;;;;;;;19.27;12.93;;;9.70;99.90;;;;;;4975503;28;20086;-61
2022/03/30 04:33:21;;;;;;;20.60;13.45;;;9.50;99.90;;;;;;4973715;28;20027;-61
2022/03/30 04:35:48;;;;;;;22.17;13.45;;;9.40;99.90;;;;;;4974707;28;20043;-62
2022/03/30 04:38:14;;;;;;;18.73;13.30;;;9.20;99.90;;;;;;4974139;28;20440;-62
2022/03/30 04:40:41;;;;;;;17.02;13.85;;;9.20;99.90;;;;;;4974153;28;20444;-62
2022/03/30 04:43:07;;;;;;;23.48;15.20;;;9.10;99.90;;;;;;4973340;28;20042;-61
2022/03/30 04:45:33;;;;;;;22.17;14.65;;;9.20;99.90;;;;;;4975000;28;20027;-62
2022/03/30 04:47:59;;;;;;;21.55;14.95;;;9.20;99.90;;;;;;4974043;28;20030;-61
2022/03/30 04:50:26;;;;;;;20.63;13.77;;;9.10;99.90;;;;;;4973923;28;20027;-62
2022/03/30 04:52:52;;;;;;;19.75;14.55;;;9.00;99.90;;;;;;4974106;28;20499;-61
2022/03/30 04:55:19;;;;;;;24.58;16.02;;;8.80;99.90;;;;;;4973623;28;20100;-61
2022/03/30 04:57:45;;;;;;;19.98;14.82;;;8.70;99.90;;;;;;4974416;28;20023;-62
2022/03/30 05:00:12;;;;;;;22.88;15.10;;;8.70;99.90;;;;;;4974229;28;20038;-61
2022/03/30 05:02:40;;;;;;;22.00;16.15;;;8.70;99.90;;;;;;4973789;28;20023;-61
2022/03/30 05:05:08;;;;;;;24.48;16.00;;;8.60;99.90;;;;;;4973843;28;20033;-61
2022/03/30 05:07:34;;;;;;;21.33;15.63;;;8.70;99.90;;;;;;4957590;28;20553;-61
2022/03/30 05:10:00;;;;;;;22.63;17.33;;;8.80;99.90;;;;;;4970584;28;20135;-61
2022/03/30 05:12:26;;;;;;;27.00;15.70;;;8.90;99.90;;;;;;4973648;28;20031;-61
2022/03/30 05:14:52;;;;;;;25.92;16.38;;;9.00;99.90;;;;;;4973577;28;20415;-61
2022/03/30 05:17:18;;;;;;;26.13;15.35;;;9.10;99.90;;;;;;4973973;28;20105;-62
2022/03/30 05:19:44;;;;;;;20.02;14.68;;;9.20;99.90;;;;;;4973567;28;20015;-61
2022/03/30 05:22:13;;;;;;;22.42;17.63;;;9.20;99.90;;;;;;4973411;28;20027;-61
2022/03/30 05:24:38;;;;;;;23.65;19.20;;;9.20;99.90;;;;;;4973701;28;20027;-61
2022/03/30 05:27:04;;;;;;;25.58;19.20;;;9.20;99.90;;;;;;4973439;28;20031;-61
2022/03/30 05:29:31;;;;;;;24.48;19.17;;;9.10;99.90;;;;;;4973309;28;20487;-61
2022/03/30 05:31:56;;;;;;;28.35;19.08;;;9.10;99.90;;;;;;4973404;28;20113;-62
2022/03/30 05:34:24;;;;;;;24.40;17.38;;;9.20;99.90;;;;;;4973094;28;20484;-61
2022/03/30 05:36:50;;;;;;;24.88;16.95;;;9.30;99.90;;;;;;4973859;28;20054;-61
2022/03/30 05:39:16;;;;;;;25.42;16.23;;;9.30;99.90;;;;;;4973131;28;20030;-61
2022/03/30 05:41:42;;;;;;;22.50;16.58;;;9.40;99.90;;;;;;4973204;28;20138;-61
2022/03/30 05:44:07;;;;;;;23.02;17.50;;;9.50;99.90;;;;;;4973013;28;20026;-61
2022/03/30 05:46:35;;;;;;;21.13;16.08;;;9.40;99.90;;;;;;4973549;28;20019;-61
2022/03/30 05:49:00;;;;;;;23.58;17.15;;;9.50;99.90;;;;;;4969798;28;20023;-61
2022/03/30 05:51:26;;;;;;;26.38;16.52;;;9.50;99.90;;;;;;4972608;28;20499;-62
2022/03/30 05:53:52;;;;;;;28.90;17.52;;;9.70;99.90;;;;;;4973322;28;20328;-61
2022/03/30 05:56:18;;;;;;;31.40;18.08;;;9.70;99.90;;;;;;4972908;28;20031;-61
2022/03/30 05:58:43;;;;;;;26.58;18.67;;;9.70;99.90;;;;;;4972977;28;20380;-61
2022/03/30 06:01:09;;;;;;;31.38;18.88;;;9.60;99.90;;;;;;4973211;28;20483;-61
2022/03/30 06:03:37;;;;;;;34.63;19.30;;;9.60;99.90;;;;;;4973222;28;20089;-62
2022/03/30 06:06:07;;;;;;;36.53;20.00;;;9.60;99.90;;;;;;4972344;28;20030;-61
2022/03/30 06:08:34;;;;;;;35.95;19.13;;;9.70;99.90;;;;;;4973052;28;20110;-62
2022/03/30 06:11:00;;;;;;;27.20;20.15;;;9.80;99.90;;;;;;4972841;28;20039;-61
2022/03/30 06:13:26;;;;;;;33.65;20.17;;;9.80;99.90;;;;;;4972760;28;20033;-62
2022/03/30 06:15:52;;;;;;;28.52;20.10;;;9.90;99.90;;;;;;4973123;28;20035;-62
2022/03/30 06:18:18;;;;;;;27.08;18.85;;;9.90;99.90;;;;;;4972622;28;20035;-61
2022/03/30 06:20:44;;;;;;;23.65;18.42;;;9.90;99.90;;;;;;4971333;28;20022;-62
2022/03/30 06:23:11;;;;;;;23.88;17.70;;;9.90;99.90;;;;;;4972618;28;20364;-62
2022/03/30 06:25:37;;;;;;;27.08;18.30;;;10.00;99.90;;;;;;4972815;28;20474;-61
2022/03/30 06:28:03;;;;;;;26.70;18.40;;;10.00;99.90;;;;;;4973173;28;20059;-62
2022/03/30 06:30:29;;;;;;;26.67;18.70;;;9.90;99.90;;;;;;4972575;28;20035;-61
2022/03/30 06:32:55;;;;;;;21.30;17.25;;;10.00;99.90;;;;;;4972079;28;20026;-60
2022/03/30 06:35:21;;;;;;;25.88;17.45;;;10.00;99.90;;;;;;4971751;28;20047;-60
2022/03/30 06:37:47;;;;;;;23.27;17.40;;;10.00;99.90;;;;;;4972673;28;20025;-61
2022/03/30 06:40:14;;;;;;;24.80;16.60;;;10.10;99.90;;;;;;4972478;28;20077;-61
2022/03/30 06:42:41;;;;;;;23.42;15.85;;;10.20;99.90;;;;;;4972625;28;20023;-61
2022/03/30 06:45:08;;;;;;;28.80;15.95;;;10.20;99.90;;;;;;4972250;28;20027;-61
2022/03/30 06:47:34;;;;;;;27.88;16.10;;;10.10;99.90;;;;;;4972052;28;20050;-61
2022/03/30 06:50:00;;;;;;;22.50;15.68;;;10.20;99.90;;;;;;4971809;28;20061;-61
2022/03/30 06:52:26;;;;;;;25.40;17.25;;;10.20;99.90;;;;;;4972156;28;20484;-61
2022/03/30 06:54:52;;;;;;;25.23;16.08;;;10.20;99.90;;;;;;4972553;28;20058;-61
2022/03/30 06:57:20;;;;;;;21.63;14.85;;;10.20;99.90;;;;;;4972252;28;20026;-61
2022/03/30 06:59:46;;;;;;;20.80;14.90;;;10.30;99.90;;;;;;4971534;28;20061;-61
2022/03/30 07:02:12;;;;;;;23.05;15.43;;;10.50;99.90;;;;;;4971976;28;20459;-61
2022/03/30 07:04:38;;;;;;;27.17;15.10;;;10.50;99.90;;;;;;4971580;28;20027;-61
2022/03/30 07:12:33;;;;;;;25.13;14.95;;;10.80;99.90;;;;;;4972342;28;20046;-61
2022/03/30 07:15:00;;;;;;;22.98;15.02;;;10.80;99.90;;;;;;4971920;28;20035;-61
2022/03/30 07:17:27;;;;;;;24.65;15.18;;;10.90;99.90;;;;;;4971577;28;20033;-62
2022/03/30 07:19:52;;;;;;;23.98;14.80;;;10.90;99.90;;;;;;4971161;28;20131;-61
2022/03/30 07:22:18;;;;;;;25.23;15.07;;;10.90;99.90;;;;;;4971587;28;20110;-61
2022/03/30 07:24:44;;;;;;;21.90;14.40;;;11.00;99.90;;;;;;4970302;28;20081;-61
2022/03/30 07:27:10;;;;;;;23.98;15.88;;;11.00;99.90;;;;;;4971884;28;20030;-61
2022/03/30 07:29:36;;;;;;;22.33;16.10;;;11.10;99.90;;;;;;4971617;28;20088;-61
2022/03/30 07:32:03;;;;;;;24.27;15.65;;;11.00;99.90;;;;;;4974385;28;20081;-61
2022/03/30 07:34:29;;;;;;;24.52;15.02;;;11.00;99.90;;;;;;4974807;28;20043;-61
2022/03/30 07:36:57;;;;;;;26.85;15.02;;;11.00;99.90;;;;;;4975844;28;20125;-61
2022/03/30 07:39:22;;;;;;;24.48;14.55;;;11.10;99.90;;;;;;4975239;28;20031;-62
2022/03/30 07:41:49;;;;;;;22.63;15.15;;;11.20;99.90;;;;;;4975249;28;20045;-62
2022/03/30 07:44:14;;;;;;;20.23;14.70;;;11.30;99.90;;;;;;4975104;28;20026;-61
2022/03/30 07:46:40;;;;;;;22.88;14.52;;;11.40;99.90;;;;;;4975055;28;20027;-61
2022/03/30 07:49:06;;;;;;;19.83;14.00;;;11.40;99.90;;;;;;4975168;28;20066;-61
2022/03/30 07:51:32;;;;;;;26.50;14.65;;;11.50;99.90;;;;;;4975397;28;20097;-61
2022/03/30 07:53:58;;;;;;;22.85;13.93;;;11.50;99.90;;;;;;4975051;28;20118;-61
2022/03/30 07:56:25;;;;;;;24.08;14.13;;;11.60;99.90;;;;;;4974608;28;20034;-61
2022/03/30 07:58:53;;;;;;;25.55;14.32;;;11.60;99.90;;;;;;4974856;28;20491;-62
2022/03/30 08:01:20;;;;;;;23.25;13.45;;;11.70;99.90;;;;;;4974889;28;20041;-61
2022/03/30 08:03:46;;;;;;;22.25;13.10;;;11.80;99.90;;;;;;4975248;28;20029;-62
2022/03/30 08:06:12;;;;;;;28.48;13.90;;;12.00;99.90;;;;;;4975092;28;20130;-62
2022/03/30 08:08:38;;;;;;;18.83;12.38;;;12.10;99.90;;;;;;4974537;28;20136;-61
2022/03/30 08:11:04;;;;;;;25.55;13.02;;;12.20;99.90;;;;;;4974717;28;20504;-62
2022/03/30 08:13:30;;;;;;;25.90;13.48;;;12.20;99.90;;;;;;4974705;28;20042;-62
2022/03/30 08:15:56;;;;;;;24.20;13.90;;;12.30;99.90;;;;;;4974950;28;20030;-61
2022/03/30 08:18:22;;;;;;;28.10;13.85;;;12.30;99.90;;;;;;4974441;28;20069;-61
2022/03/30 08:23:35;;;;;;;25.17;13.95;;;12.50;99.90;;;;;;4974447;28;20538;-62
2022/03/30 08:26:01;;;;;;;24.77;13.60;;;12.50;99.90;;;;;;4974432;28;20027;-61
2022/03/30 08:28:27;;;;;;;26.25;14.27;;;12.50;99.90;;;;;;4974762;28;20033;-62
2022/03/30 08:30:53;;;;;;;25.77;14.52;;;12.50;99.90;;;;;;4974649;28;20026;-62
2022/03/30 08:33:23;;;;;;;29.95;14.60;;;12.40;99.90;;;;;;4973709;28;20022;-61
2022/03/30 08:35:50;;;;;;;28.88;14.80;;;12.50;99.90;;;;;;4973925;28;20031;-62
2022/03/30 08:38:16;;;;;;;22.40;14.70;;;12.50;99.90;;;;;;4972372;28;20051;-60
2022/03/30 08:40:42;;;;;;;25.48;14.13;;;12.50;99.90;;;;;;4974247;28;20408;-59
2022/03/30 08:43:07;;;;;;;23.95;14.25;;;12.40;99.90;;;;;;4972937;28;20468;-59
2022/03/30 08:45:33;;;;;;;29.95;14.75;;;12.50;99.90;;;;;;4973966;28;20121;-60
2022/03/30 08:48:01;;;;;;;22.88;14.43;;;12.60;99.90;;;;;;4973970;28;20058;-60
2022/03/30 08:50:27;;;;;;;28.55;14.65;;;12.70;99.90;;;;;;4973808;28;20040;-59
2022/03/30 08:52:55;;;;;;;30.05;15.02;;;12.70;99.90;;;;;;4973941;28;20166;-60
2022/03/30 08:55:22;;;;;;;26.23;15.40;;;12.80;99.90;;;;;;4974120;28;20039;-60
2022/03/30 08:57:48;;;;;;;28.00;14.55;;;12.90;99.90;;;;;;4973050;28;20508;-59
2022/03/30 09:00:21;;;;;;;32.88;15.23;;;13.00;99.90;;;;;;4973258;28;20147;-59
2022/03/30 09:02:58;;;;;;;;;;;12.70;99.90;;;;;;4973993;28;20035;-60
2022/03/30 09:05:35;;;;;;;27.20;14.75;;;12.90;99.90;;;;;;4973557;28;19953;-60
2022/03/30 09:08:13;;;;;;;26.40;14.55;;;12.90;99.90;;;;;;4973557;28;20027;-59
2022/03/30 09:10:44;;;;;;;33.78;16.98;;;13.10;99.90;;;;;;4958918;28;20459;-60
2022/03/30 09:13:11;;;;;;;26.63;15.00;;;13.20;99.90;;;;;;4973583;28;20484;-59
2022/03/30 09:15:38;;;;;;;23.50;14.68;;;13.20;99.90;;;;;;4972572;28;20117;-60
2022/03/30 09:18:06;;;;;;;32.17;15.75;;;13.30;99.90;;;;;;4973400;28;20031;-59
2022/03/30 09:20:34;;;;;;;30.48;15.63;;;13.10;99.90;;;;;;4973519;28;20049;-60
2022/03/30 09:23:00;;;;;;;25.25;15.02;;;13.20;99.90;;;;;;4973228;28;20547;-60
2022/03/30 09:25:29;;;;;;;25.38;15.32;;;13.20;99.90;;;;;;4973274;28;20114;-59
2022/03/30 09:27:57;;;;;;;32.92;15.60;;;13.30;99.90;;;;;;4973727;28;20022;-60
2022/03/30 09:30:28;;;;;;;29.75;15.68;;;13.30;99.90;;;;;;4972965;28;20087;-62
2022/03/30 09:32:58;;;;;;;40.92;16.30;;;13.50;99.90;;;;;;4973122;28;20057;-60
2022/03/30 09:35:27;;;;;;;30.15;16.17;;;13.40;99.90;;;;;;4972367;28;20098;-60
2022/03/30 09:38:11;;;;;;;30.15;15.68;;;13.50;99.90;;;;;;4972938;28;20041;-60
2022/03/30 09:40:43;;;;;;;33.53;15.35;;;13.50;99.90;;;;;;4958290;28;20043;-60
2022/03/30 09:43:26;;;;;;;36.20;16.15;;;13.50;99.90;;;;;;4973323;28;20117;-60
2022/03/30 09:46:14;;;;;;;35.58;17.40;;;13.70;99.90;;;;;;4972104;28;20023;-60
2022/03/30 09:49:04;;;;;;;43.90;26.25;;;13.80;99.90;;;;;;4972646;28;20038;-60
2022/03/30 09:51:31;;;;;;;37.92;21.45;;;13.80;99.90;;;;;;4972353;28;20113;-60
2022/03/30 09:53:57;;;;;;;34.75;17.08;;;13.80;99.90;;;;;;4972235;28;20039;-60
2022/03/30 09:56:24;;;;;;;31.88;15.85;;;13.80;99.90;;;;;;4972572;28;20097;-60
2022/03/30 09:58:59;;;;;;;47.90;37.58;;;13.80;99.90;;;;;;4972310;28;20023;-60
2022/03/30 10:01:29;;;;;;;36.22;23.45;;;13.80;99.90;;;;;;4972746;28;20042;-60
2022/03/30 10:04:04;;;;;;;36.35;24.42;;;14.00;99.90;;;;;;4973184;28;20078;-61
2022/03/30 10:06:34;;;;;;;40.65;23.58;;;14.00;99.90;;;;;;4972247;28;20031;-60
2022/03/30 10:09:01;;;;;;;28.45;13.43;;;14.00;99.90;;;;;;4972459;28;20035;-60
2022/03/30 10:11:28;;;;;;;28.80;15.40;;;14.00;99.90;;;;;;4972405;28;20034;-60
2022/03/30 10:13:57;;;;;;;26.30;13.63;;;14.20;99.90;;;;;;4972441;28;20233;-60
2022/03/30 10:16:23;;;;;;;26.73;12.73;;;14.30;99.90;;;;;;4972464;28;20412;-60
2022/03/30 10:18:51;;;;;;;26.95;14.35;;;14.20;99.90;;;;;;4973091;28;20396;-60
2022/03/30 10:21:26;;;;;;;27.25;16.02;;;14.20;99.90;;;;;;4972086;28;20041;-60
2022/03/30 10:24:28;;;;;;;28.02;13.57;;;14.10;99.90;;;;;;4972115;28;20027;-60
2022/03/30 10:27:30;;;;;;;29.75;14.45;;;14.20;99.90;;;;;;4971988;28;20054;-60
2022/03/30 10:30:02;;;;;;;27.65;12.95;;;14.20;99.90;;;;;;4972304;28;20169;-60
2022/03/30 10:32:36;;;;;;;24.25;11.88;;;14.40;99.90;;;;;;4972225;28;20050;-60
2022/03/30 10:35:12;;;;;;;;;;;14.40;99.90;;;;;;4972548;28;20047;-60
2022/03/30 10:37:39;;;;;;;29.58;12.15;;;14.30;99.90;;;;;;4957505;28;19910;-61
2022/03/30 10:40:17;;;;;;;27.83;11.57;;;14.30;99.90;;;;;;4972801;28;20089;-61
2022/03/30 10:42:46;;;;;;;28.48;11.40;;;14.30;99.90;;;;;;4972308;28;20169;-60
2022/03/30 10:45:42;;;;;;;24.67;10.80;;;14.20;99.90;;;;;;4972035;28;20114;-61
2022/03/30 10:48:36;;;;;;;26.88;11.65;;;14.30;99.90;;;;;;4972024;28;20038;-60
2022/03/30 10:51:08;;;;;;;21.70;10.35;;;14.60;99.90;;;;;;4972195;28;20026;-61
2022/03/30 10:53:34;;;;;;;21.73;9.93;;;14.90;99.90;;;;;;4972442;28;20117;-60
2022/03/30 10:56:18;;;;;;;24.75;9.18;;;15.30;99.90;;;;;;4971467;28;20412;-59
2022/03/30 10:58:50;;;;;;;22.70;9.13;;;15.60;99.90;;;;;;4957897;28;20133;-63
2022/03/30 11:01:25;;;;;;;26.92;9.68;;;15.50;99.90;;;;;;4971494;28;20034;-60
2022/03/30 11:04:10;;;;;;;24.75;8.35;;;15.30;99.90;;;;;;4971230;28;20065;-60
2022/03/30 11:06:44;;;;;;;19.77;8.52;;;15.60;99.90;;;;;;4973994;28;20031;-61
2022/03/30 11:09:32;;;;;;;14.85;8.10;;;15.50;99.90;;;;;;4975423;28;20101;-60
2022/03/30 11:12:05;;;;;;;21.85;8.02;;;15.50;99.90;;;;;;4975319;28;20045;-60
2022/03/30 11:14:36;;;;;;;19.17;8.23;;;15.60;99.90;;;;;;4975642;28;20029;-60
2022/03/30 11:17:05;;;;;;;20.67;8.00;;;15.50;99.90;;;;;;4975435;28;20043;-60
2022/03/30 11:19:56;;;;;;;21.85;8.18;;;15.60;99.90;;;;;;4975472;28;20125;-60
2022/03/30 11:22:27;;;;;;;20.17;8.02;;;15.60;99.90;;;;;;4973976;28;20035;-60
2022/03/30 11:25:13;;;;;;;23.52;8.65;;;15.70;99.90;;;;;;4975748;28;20031;-61
2022/03/30 11:27:40;;;;;;;21.60;8.55;;;15.90;99.90;;;;;;4975048;28;20031;-61
2022/03/30 11:30:10;;;;;;;21.73;8.05;;;16.10;99.90;;;;;;4975550;28;20022;-60
2022/03/30 11:32:56;;;;;;;17.15;8.88;;;16.30;99.90;;;;;;4975174;28;20510;-60
2022/03/30 11:35:28;;;;;;;19.90;9.07;;;16.20;99.90;;;;;;4974910;28;20556;-60
2022/03/30 11:38:28;;;;;;;19.58;8.32;;;16.40;99.90;;;;;;4975067;28;20157;-60
2022/03/30 11:41:13;;;;;;;18.90;7.78;;;16.60;99.90;;;;;;4961566;28;20170;-60
2022/03/30 11:46:32;;;;;;;17.58;8.07;;;16.50;99.90;;;;;;4975392;28;20050;-60
2022/03/30 11:49:03;;;;;;;15.77;7.50;;;16.80;99.90;;;;;;4975606;28;20046;-60
2022/03/30 11:51:30;;;;;;;22.02;8.88;;;16.60;99.90;;;;;;4974865;28;20041;-60
2022/03/30 11:54:12;;;;;;;18.05;8.13;;;16.60;99.90;;;;;;4974572;28;20031;-60
2022/03/30 11:56:38;;;;;;;16.67;7.40;;;16.10;99.90;;;;;;4974732;28;20041;-62
2022/03/30 11:59:04;;;;;;;19.08;8.48;;;16.40;99.90;;;;;;4975236;28;20033;-60
2022/03/30 12:01:34;;;;;;;24.55;8.48;;;16.70;99.90;;;;;;4973593;28;20022;-60
2022/03/30 12:04:01;;;;;;;16.27;7.63;;;17.00;99.90;;;;;;4975301;28;20035;-60
2022/03/30 12:06:27;;;;;;;15.00;7.55;;;17.30;99.90;;;;;;4974442;28;20050;-60
2022/03/30 12:08:53;;;;;;;13.13;7.53;;;17.50;99.90;;;;;;4974226;28;20376;-60
2022/03/30 12:11:20;;;;;;;21.52;7.22;;;17.70;99.90;;;;;;4974436;28;20031;-61
2022/03/30 12:13:54;;;;;;;18.00;7.70;;;18.30;99.90;;;;;;4974647;28;20023;-61
2022/03/30 12:16:22;;;;;;;18.30;7.10;;;18.00;99.90;;;;;;4974539;28;20038;-60
2022/03/30 12:18:56;;;;;;;19.17;7.57;;;18.20;99.90;;;;;;4974736;28;20027;-60
2022/03/30 12:21:26;;;;;;;17.75;8.07;;;18.20;99.90;;;;;;4974260;28;20085;-60
2022/03/30 12:24:03;;;;;;;19.58;7.70;;;18.40;99.90;;;;;;4973977;28;20038;-61
2022/03/30 12:26:29;;;;;;;14.80;7.18;;;18.60;99.90;;;;;;4974244;28;20042;-60
2022/03/30 12:29:04;;;;;;;19.02;7.68;;;18.40;99.90;;;;;;4974669;28;20081;-61
2022/03/30 12:31:44;;;;;;;20.98;7.30;;;18.20;99.90;;;;;;4974328;28;20081;-60
2022/03/30 12:34:15;;;;;;;18.48;7.28;;;18.30;99.90;;;;;;4971467;28;20066;-61
2022/03/30 12:37:02;;;;;;;17.58;7.28;;;18.20;99.90;;;;;;4973850;28;20499;-60
2022/03/30 12:39:42;;;;;;;17.70;6.88;;;18.50;99.90;;;;;;4974177;28;20019;-60
2022/03/30 12:42:23;;;;;;;20.85;7.07;;;18.40;99.90;;;;;;4974300;28;20113;-61
2022/03/30 12:44:52;;;;;;;20.20;7.20;;;18.40;99.90;;;;;;4973884;28;20472;-60
2022/03/30 12:47:32;;;;;;;19.90;6.35;;;18.30;99.90;;;;;;4973683;28;20031;-60
2022/03/30 12:50:07;;;;;;;25.00;7.90;;;17.90;99.90;;;;;;4973828;28;20324;-61
2022/03/30 12:52:41;;;;;;;17.60;6.32;;;18.50;99.90;;;;;;4973478;28;20070;-60
2022/03/30 12:55:27;;;;;;;;;;;18.60;99.90;;;;;;4970982;28;20030;-60